Time;durP1;ratioP1;P1;durP2;ratioP2;P2;SDS_P1;SDS_P2;PMS_P1;PMS_P2;Temp;Humidity;BMP_temperature;BMP_pressure;BME280_temperature;BME280_humidity;BME280_pressure;Samples;Min_cycle;Max_cycle;Signal;HPM_P1;HPM_P2
2022/09/19 00:02:07;;;;;;;;;;;8.50;99.90;;;;;;4213266;28;20011;-60
2022/09/19 00:04:30;;;;;;;;;;;8.60;99.90;;;;;;4213024;28;19931;-61
2022/09/19 00:06:51;;;;;;;;;;;8.50;99.90;;;;;;4213223;28;19978;-61
2022/09/19 00:09:14;;;;;;;;;;;8.40;99.90;;;;;;4212757;28;19935;-60
2022/09/19 00:11:36;;;;;;;;;;;8.50;99.90;;;;;;4213236;28;19935;-60
2022/09/19 00:13:57;;;;;;;;;;;8.50;99.90;;;;;;4212750;28;20397;-60
2022/09/19 00:16:23;;;;;;;;;;;8.40;99.90;;;;;;4212452;28;19996;-61
2022/09/19 00:18:44;;;;;;;;;;;8.40;99.90;;;;;;4212592;28;20414;-61
2022/09/19 00:21:05;;;;;;;;;;;8.50;99.90;;;;;;4213433;28;20015;-60
2022/09/19 00:26:07;;;;;;;;;;;8.30;99.90;;;;;;4212659;28;20410;-60
2022/09/19 00:28:27;;;;;;;;;;;8.50;99.90;;;;;;4212616;28;19935;-60
2022/09/19 00:30:48;;;;;;;;;;;8.50;99.90;;;;;;4213071;28;20494;-60
2022/09/19 00:33:08;;;;;;;;;;;8.50;99.90;;;;;;4223752;28;19966;-60
2022/09/19 00:35:31;;;;;;;;;;;8.50;99.90;;;;;;4219556;28;20003;-60
2022/09/19 00:37:51;;;;;;;;;;;8.40;99.90;;;;;;4212791;28;20012;-60
2022/09/19 00:40:12;;;;;;;;;;;8.50;99.90;;;;;;4212851;28;19982;-61
2022/09/19 00:42:34;;;;;;;;;;;8.40;99.90;;;;;;4212465;28;19931;-60
2022/09/19 00:45:02;;;;;;;;;;;8.40;99.90;;;;;;4212950;28;20505;-60
2022/09/19 00:47:25;;;;;;;;;;;8.40;99.90;;;;;;4211914;28;20283;-60
2022/09/19 00:49:48;;;;;;;;;;;8.00;99.90;;;;;;4212656;28;19931;-60
2022/09/19 00:52:31;;;;;;;;;;;8.10;99.90;;;;;;4212368;28;20016;-60
2022/09/19 00:54:52;;;;;;;;;;;8.10;99.90;;;;;;4212570;28;19950;-60
2022/09/19 00:57:14;;;;;;;;;;;8.00;99.90;;;;;;4212413;28;19973;-61
2022/09/19 00:59:35;;;;;;;;;;;8.00;99.90;;;;;;4212677;28;19934;-60
2022/09/19 01:01:55;;;;;;;;;;;8.10;99.90;;;;;;4196162;28;20331;-61
2022/09/19 01:04:20;;;;;;;;;;;8.00;99.90;;;;;;4204889;28;19931;-60
2022/09/19 01:06:50;;;;;;;;;;;8.00;99.90;;;;;;4212462;28;20415;-60
2022/09/19 01:09:26;;;;;;;;;;;8.00;99.90;;;;;;4212335;28;19942;-60
2022/09/19 01:12:06;;;;;;;;;;;8.00;99.90;;;;;;4195639;28;19935;-60
2022/09/19 01:14:30;;;;;;;;;;;7.90;99.90;;;;;;4210445;28;20417;-60
2022/09/19 01:16:51;;;;;;;;;;;7.90;99.90;;;;;;4202751;28;19978;-60
2022/09/19 01:19:30;;;;;;;;;;;7.90;99.90;;;;;;4196856;28;20300;-61
2022/09/19 01:21:53;;;;;;;;;;;8.10;99.90;;;;;;4212572;28;19935;-60
2022/09/19 01:24:17;;;;;;;;;;;8.20;99.90;;;;;;4212001;28;19931;-60
2022/09/19 01:26:58;;;;;;;;;;;8.30;99.90;;;;;;4212268;28;20032;-60
2022/09/19 01:29:25;;;;;;;;;;;8.20;99.90;;;;;;4213164;28;19932;-61
2022/09/19 01:31:47;;;;;;;;;;;8.10;99.90;;;;;;4215312;28;20016;-60
2022/09/19 01:34:17;;;;;;;;;;;7.90;99.90;;;;;;4198455;28;19993;-61
2022/09/19 01:36:38;;;;;;;;;;;7.80;99.90;;;;;;4212226;28;19958;-61
2022/09/19 01:39:01;;;;;;;;;;;7.90;99.90;;;;;;4215082;28;19981;-61
2022/09/19 01:41:22;;;;;;;;;;;8.00;99.90;;;;;;4215416;28;19934;-60
2022/09/19 01:43:42;;;;;;;;;;;8.00;99.90;;;;;;4215258;28;19935;-60
2022/09/19 01:46:09;;;;;;;;;;;7.90;99.90;;;;;;4214917;28;19935;-60
2022/09/19 01:48:42;;;;;;;;;;;7.90;99.90;;;;;;4215668;28;20350;-61
2022/09/19 01:51:16;;;;;;;;;;;7.90;99.90;;;;;;4214917;28;19939;-60
2022/09/19 01:53:51;;;;;;;;;;;7.90;99.90;;;;;;4215350;28;19973;-61
2022/09/19 01:56:15;;;;;;;;;;;7.70;99.90;;;;;;4198301;28;19939;-61
2022/09/19 01:58:36;;;;;;;;;;;7.60;99.90;;;;;;4198188;28;19951;-60
2022/09/19 02:01:08;;;;;;;;;;;7.70;99.90;;;;;;4201889;28;19937;-60
2022/09/19 02:03:36;;;;;;;;;;;7.60;99.90;;;;;;4215317;28;19931;-60
2022/09/19 02:06:26;;;;;;;;;;;7.80;99.90;;;;;;4198582;28;19930;-60
2022/09/19 02:08:50;;;;;;;;;;;7.80;99.90;;;;;;4211464;28;19932;-61
2022/09/19 02:11:16;;;;;;;;;;;7.60;99.90;;;;;;4213476;28;19935;-60
2022/09/19 02:13:38;;;;;;;;;;;7.60;99.90;;;;;;4215062;28;20440;-60
2022/09/19 02:16:04;;;;;;;;;;;7.60;99.90;;;;;;4215066;28;19938;-60
2022/09/19 02:18:34;;;;;;;;;;;7.50;99.90;;;;;;4214703;28;19974;-61
2022/09/19 02:20:58;;;;;;;;;;;7.60;99.90;;;;;;4214628;28;19971;-61
2022/09/19 02:23:20;;;;;;;;;;;7.70;99.90;;;;;;4214904;28;20027;-60
2022/09/19 02:25:42;;;;;;;;;;;7.70;99.90;;;;;;4214600;28;19974;-61
2022/09/19 02:28:07;;;;;;;;;;;7.70;99.90;;;;;;4197865;28;19931;-60
2022/09/19 02:30:28;;;;;;;;;;;7.70;99.90;;;;;;4208409;28;19970;-60
2022/09/19 02:32:49;;;;;;;;;;;7.70;99.90;;;;;;4214791;28;19935;-60
2022/09/19 02:35:11;;;;;;;;;;;7.70;99.90;;;;;;4214383;28;19947;-60
2022/09/19 02:37:41;;;;;;;;;;;7.80;99.90;;;;;;4214124;28;19950;-60
2022/09/19 02:40:08;;;;;;;;;;;7.80;99.90;;;;;;4214401;28;19990;-61
2022/09/19 02:42:33;;;;;;;;;;;7.70;99.90;;;;;;4214296;28;19973;-60
2022/09/19 02:45:03;;;;;;;;;;;7.70;99.90;;;;;;4214543;28;20302;-60
2022/09/19 02:47:28;;;;;;;;;;;7.80;99.90;;;;;;4204620;28;19931;-60
2022/09/19 02:49:56;;;;;;;;;;;7.70;99.90;;;;;;4214342;28;19931;-60
2022/09/19 02:52:28;;;;;;;;;;;7.50;99.90;;;;;;4213987;28;20010;-60
2022/09/19 02:54:51;;;;;;;;;;;7.40;99.90;;;;;;4214098;28;19953;-60
2022/09/19 02:57:14;;;;;;;;;;;7.30;99.90;;;;;;4214121;28;19973;-60
2022/09/19 02:59:37;;;;;;;;;;;7.30;99.90;;;;;;4214186;28;20015;-60
2022/09/19 03:02:00;;;;;;;;;;;7.30;99.90;;;;;;4213694;28;20031;-60
2022/09/19 03:04:26;;;;;;;;;;;7.40;99.90;;;;;;4214129;28;20015;-60
2022/09/19 03:07:12;;;;;;;;;;;7.30;99.90;;;;;;4214278;28;20009;-60
2022/09/19 03:09:32;;;;;;;;;;;7.30;99.90;;;;;;4197321;28;19990;-60
2022/09/19 03:12:05;;;;;;;;;;;7.20;99.90;;;;;;4207059;28;19978;-60
2022/09/19 03:14:25;;;;;;;;;;;7.20;99.90;;;;;;4209252;28;19982;-60
2022/09/19 03:16:47;;;;;;;;;;;7.20;99.90;;;;;;4197002;28;20031;-60
2022/09/19 03:19:09;;;;;;;;;;;7.20;99.90;;;;;;4197361;28;20283;-60
2022/09/19 03:21:30;;;;;;;;;;;7.10;99.90;;;;;;4207106;28;19970;-60
2022/09/19 03:23:51;;;;;;;;;;;7.10;99.90;;;;;;4213819;28;20016;-60
2022/09/19 03:26:13;;;;;;;;;;;7.00;99.90;;;;;;4229751;28;19934;-60
2022/09/19 03:28:34;;;;;;;;;;;7.10;99.90;;;;;;4213968;28;19935;-60
2022/09/19 03:30:59;;;;;;;;;;;7.20;99.90;;;;;;4213552;28;19965;-60
2022/09/19 03:33:19;;;;;;;;;;;7.10;99.90;;;;;;4213623;28;19932;-60
2022/09/19 03:35:39;;;;;;;;;;;7.20;99.90;;;;;;4213430;28;19931;-60
2022/09/19 03:38:01;;;;;;;;;;;7.10;99.90;;;;;;4212967;28;20406;-60
2022/09/19 03:40:22;;;;;;;;;;;7.30;99.90;;;;;;4213116;28;19976;-61
2022/09/19 03:42:46;;;;;;;;;;;7.30;99.90;;;;;;4213083;28;19930;-60
2022/09/19 03:45:06;;;;;;;;;;;7.20;99.90;;;;;;4213795;28;19935;-61
2022/09/19 03:47:27;;;;;;;;;;;7.00;99.90;;;;;;4213186;28;20409;-61
2022/09/19 03:49:49;;;;;;;;;;;7.10;99.90;;;;;;4212874;28;20345;-61
2022/09/19 03:52:10;;;;;;;;;;;7.10;99.90;;;;;;4212831;28;19931;-61
2022/09/19 03:54:30;;;;;;;;;;;7.10;99.90;;;;;;4213530;28;19997;-61
2022/09/19 03:56:50;;;;;;;;;;;7.10;99.90;;;;;;4212860;28;20027;-61
2022/09/19 03:59:11;;;;;;;;;;;7.10;99.90;;;;;;4207552;28;19986;-61
2022/09/19 04:01:31;;;;;;;;;;;7.10;99.90;;;;;;4196376;28;19936;-61
2022/09/19 04:03:52;;;;;;;;;;;7.10;99.90;;;;;;4196305;28;19966;-61
2022/09/19 04:06:13;;;;;;;;;;;7.00;99.90;;;;;;4207014;28;20394;-61
2022/09/19 04:08:33;;;;;;;;;;;7.10;99.90;;;;;;4213091;28;19931;-61
2022/09/19 04:10:54;;;;;;;;;;;7.10;99.90;;;;;;4212853;28;19931;-61
2022/09/19 04:13:14;;;;;;;;;;;7.10;99.90;;;;;;4213081;28;19970;-61
2022/09/19 04:15:35;;;;;;;;;;;7.00;99.90;;;;;;4212632;28;19934;-61
2022/09/19 04:17:55;;;;;;;;;;;7.00;99.90;;;;;;4212671;28;20390;-61
2022/09/19 04:20:16;;;;;;;;;;;6.90;99.90;;;;;;4212520;28;20110;-60
2022/09/19 04:22:37;;;;;;;;;;;6.90;99.90;;;;;;4211895;28;19969;-61
2022/09/19 04:24:57;;;;;;;;;;;6.90;99.90;;;;;;4213183;28;19993;-61
2022/09/19 04:27:18;;;;;;;;;;;6.90;99.90;;;;;;4212368;28;20025;-60
2022/09/19 04:29:40;;;;;;;;;;;6.90;99.90;;;;;;4213067;28;19966;-61
2022/09/19 04:32:02;;;;;;;;;;;7.00;99.90;;;;;;4212683;28;20474;-60
2022/09/19 04:34:22;;;;;;;;;;;7.00;99.90;;;;;;4212519;28;19974;-60
2022/09/19 04:36:43;;;;;;;;;;;7.00;99.90;;;;;;4212510;28;20013;-61
2022/09/19 04:39:03;;;;;;;;;;;7.10;99.90;;;;;;4195646;28;20015;-61
2022/09/19 04:41:24;;;;;;;;;;;7.10;99.90;;;;;;4207469;28;19978;-61
2022/09/19 04:43:46;;;;;;;;;;;7.00;99.90;;;;;;4212230;28;19931;-61
2022/09/19 04:46:06;;;;;;;;;;;7.00;99.90;;;;;;4211179;28;19934;-61
2022/09/19 04:48:27;;;;;;;;;;;7.00;99.90;;;;;;4210265;28;20676;-61
2022/09/19 04:50:50;;;;;;;;;;;6.90;99.90;;;;;;4212297;28;19934;-61
2022/09/19 04:53:13;;;;;;;;;;;6.90;99.90;;;;;;4212165;28;19977;-60
2022/09/19 04:55:33;;;;;;;;;;;6.70;99.90;;;;;;4212649;28;19935;-60
2022/09/19 04:57:56;;;;;;;;;;;6.70;99.90;;;;;;4211972;28;19977;-61
2022/09/19 05:00:36;;;;;;;;;;;6.90;99.90;;;;;;4211946;28;19981;-61
2022/09/19 05:02:57;;;;;;;;;;;6.90;99.90;;;;;;4206208;28;20406;-61
2022/09/19 05:05:17;;;;;;;;;;;6.90;99.90;;;;;;4210828;28;19947;-61
2022/09/19 05:07:39;;;;;;;;;;;6.90;99.90;;;;;;4204386;28;19936;-60
2022/09/19 05:10:04;;;;;;;;;;;7.00;99.90;;;;;;4208263;28;19978;-61
2022/09/19 05:12:24;;;;;;;;;;;7.00;99.90;;;;;;4207410;28;20023;-61
2022/09/19 05:14:46;;;;;;;;;;;7.20;99.90;;;;;;4212059;28;20310;-61
2022/09/19 05:17:07;;;;;;;;;;;7.30;99.90;;;;;;4200353;28;20425;-60
2022/09/19 05:19:27;;;;;;;;;;;7.30;99.90;;;;;;4218911;28;20050;-60
2022/09/19 05:21:48;;;;;;;;;;;7.40;99.90;;;;;;4212551;28;19939;-61
2022/09/19 05:24:09;;;;;;;;;;;7.40;99.90;;;;;;4212502;28;19934;-58
2022/09/19 05:26:29;;;;;;;;;;;7.30;99.90;;;;;;4210495;28;19950;-57
2022/09/19 05:28:50;;;;;;;;;;;7.40;99.90;;;;;;4207979;28;20452;-58
2022/09/19 05:31:11;;;;;;;;;;;7.50;99.90;;;;;;4197821;28;19934;-58
2022/09/19 05:33:32;;;;;;;;;;;7.60;99.90;;;;;;4212255;28;19930;-58
2022/09/19 05:35:56;;;;;;;;;;;7.60;99.90;;;;;;4211831;28;20412;-58
2022/09/19 05:38:16;;;;;;;;;;;7.50;99.90;;;;;;4211911;28;19935;-58
2022/09/19 05:40:37;;;;;;;;;;;7.50;99.90;;;;;;4212000;28;20463;-58
2022/09/19 05:43:02;;;;;;;;;;;7.40;99.90;;;;;;4212728;28;20357;-58
2022/09/19 05:45:22;;;;;;;;;;;7.40;99.90;;;;;;4212060;28;19981;-58
2022/09/19 05:47:43;;;;;;;;;;;7.40;99.90;;;;;;4211382;28;19970;-58
2022/09/19 05:50:04;;;;;;;;;;;7.40;99.90;;;;;;4212296;28;20408;-58
2022/09/19 05:55:04;;;;;;;;;;;7.50;99.90;;;;;;4209322;28;19973;-58
2022/09/19 05:57:25;;;;;;;;;;;7.60;99.90;;;;;;4212046;28;19946;-58
2022/09/19 05:59:45;;;;;;;;;;;7.70;99.90;;;;;;4212036;28;20011;-58
2022/09/19 06:02:09;;;;;;;;;;;7.90;99.90;;;;;;4211785;28;19931;-57
2022/09/19 06:04:30;;;;;;;;;;;8.10;99.90;;;;;;4211378;28;19935;-58
2022/09/19 06:06:50;;;;;;;;;;;8.40;99.90;;;;;;4210853;28;20410;-58
2022/09/19 06:09:10;;;;;;;;;;;8.50;99.90;;;;;;4211683;28;20009;-58
2022/09/19 06:11:30;;;;;;;;;;;8.70;99.90;;;;;;4195425;28;19974;-58
2022/09/19 06:16:30;;;;;;;;;;;9.00;99.90;;;;;;4224952;28;19931;-58
2022/09/19 06:18:50;;;;;;;;;;;9.10;99.90;;;;;;4214565;28;20413;-57
2022/09/19 06:21:10;;;;;;;;;;;9.00;99.90;;;;;;4198152;28;19974;-58
2022/09/19 06:23:31;;;;;;;;;;;9.00;99.90;;;;;;4210090;28;20414;-58
2022/09/19 06:25:51;;;;;;;;;;;9.20;99.90;;;;;;4214965;28;19930;-57
2022/09/19 06:28:12;;;;;;;;;;;9.30;99.90;;;;;;4214424;28;19946;-58
2022/09/19 06:30:33;;;;;;;;;;;9.40;99.90;;;;;;4197554;28;20357;-58
2022/09/19 06:32:54;;;;;;;;;;;9.40;99.90;;;;;;4208451;28;19977;-58
2022/09/19 06:35:15;;;;;;;;;;;9.30;99.90;;;;;;4213822;28;20413;-58
2022/09/19 06:37:35;;;;;;;;;;;9.40;99.90;;;;;;4214476;28;19982;-58
2022/09/19 06:39:56;;;;;;;;;;;9.70;99.90;;;;;;4214077;28;19931;-58
2022/09/19 06:42:17;;;;;;;;;;;9.80;99.90;;;;;;4214337;28;19973;-58
2022/09/19 06:44:37;;;;;;;;;;;9.90;99.90;;;;;;4214279;28;19931;-58
2022/09/19 06:47:01;;;;;;;;;;;10.00;99.90;;;;;;4214098;28;19985;-58
2022/09/19 06:49:21;;;;;;;;;;;10.30;99.90;;;;;;4214127;28;20406;-58
2022/09/19 06:51:41;;;;;;;;;;;10.50;99.90;;;;;;4214218;28;19931;-58
2022/09/19 06:54:02;;;;;;;;;;;10.60;99.90;;;;;;4214232;28;19934;-58
2022/09/19 06:56:22;;;;;;;;;;;10.70;99.90;;;;;;4214173;28;20288;-58
2022/09/19 06:58:43;;;;;;;;;;;10.90;99.90;;;;;;4213799;28;20035;-58
2022/09/19 07:01:03;;;;;;;;;;;11.00;99.90;;;;;;4213986;28;19977;-58
2022/09/19 07:03:24;;;;;;;;;;;11.20;99.90;;;;;;4214307;28;19973;-59
2022/09/19 07:05:46;;;;;;;;;;;11.30;99.90;;;;;;4197280;28;19932;-59
2022/09/19 07:08:06;;;;;;;;;;;11.40;99.90;;;;;;4209350;28;19954;-59
2022/09/19 07:10:27;;;;;;;;;;;11.60;99.90;;;;;;4219070;28;19969;-59
2022/09/19 07:12:55;;;;;;;;;;;11.80;99.90;;;;;;4213983;28;19967;-59
2022/09/19 07:15:16;;;;;;;;;;;12.00;99.90;;;;;;4197402;28;19958;-59
2022/09/19 07:17:37;;;;;;;;;;;12.10;99.90;;;;;;4207996;28;20402;-58
2022/09/19 07:19:59;;;;;;;;;;;12.30;99.90;;;;;;4213462;28;20736;-59
2022/09/19 07:22:21;;;;;;;;;;;12.40;99.90;;;;;;4213973;28;19931;-58
2022/09/19 07:24:41;;;;;;;;;;;12.60;99.90;;;;;;4197075;28;19947;-59
2022/09/19 07:27:02;;;;;;;;;;;12.70;99.90;;;;;;4206280;28;20015;-59
2022/09/19 07:29:22;;;;;;;;;;;12.90;99.90;;;;;;4213766;28;19939;-59
2022/09/19 07:31:43;;;;;;;;;;;12.90;99.90;;;;;;4214034;28;19981;-59
2022/09/19 07:34:04;;;;;;;;;;;13.00;99.90;;;;;;4213469;28;19935;-59
2022/09/19 07:36:26;;;;;;;;;;;13.20;99.90;;;;;;4213667;28;19931;-59
2022/09/19 07:38:50;;;;;;;;;;;13.30;99.90;;;;;;4213562;28;20031;-59
2022/09/19 07:41:10;;;;;;;;;;;13.20;99.90;;;;;;4213270;28;19973;-59
2022/09/19 07:43:31;;;;;;;;;;;13.20;99.90;;;;;;4213358;28;19973;-59
2022/09/19 07:45:52;;;;;;;;;;;13.30;99.90;;;;;;4213324;28;19931;-59
2022/09/19 07:48:13;;;;;;;;;;;13.30;99.90;;;;;;4212846;28;20391;-59
2022/09/19 07:50:35;;;;;;;;;;;13.40;99.90;;;;;;4213342;28;19939;-59
2022/09/19 07:53:10;;;;;;;;;;;13.70;99.90;;;;;;4213666;28;19931;-59
2022/09/19 07:55:32;;;;;;;;;;;13.80;99.90;;;;;;4212949;28;20363;-59
2022/09/19 07:57:53;;;;;;;;;;;14.10;99.90;;;;;;4213289;28;19977;-59
2022/09/19 08:00:14;;;;;;;;;;;14.30;99.90;;;;;;4213060;28;19935;-59
2022/09/19 08:02:34;;;;;;;;;;;14.50;99.90;;;;;;4213464;28;19931;-59
2022/09/19 08:04:54;;;;;;;;;;;14.70;99.90;;;;;;4213043;28;19970;-59
2022/09/19 08:07:14;;;;;;;;;;;15.00;99.90;;;;;;4227603;28;19934;-59
2022/09/19 08:09:35;;;;;;;;;;;15.10;99.90;;;;;;4196498;28;19931;-60
2022/09/19 08:11:57;;;;;;;;;;;15.30;99.90;;;;;;4208213;28;20023;-59
2022/09/19 08:14:17;;;;;;;;;;;15.60;99.90;;;;;;4213122;28;19970;-59
2022/09/19 08:16:37;;;;;;;;;;;16.00;99.90;;;;;;4212769;28;19931;-59
2022/09/19 08:18:58;;;;;;;;;;;16.00;99.90;;;;;;4195897;28;20330;-59
2022/09/19 08:21:19;;;;;;;;;;;16.20;99.90;;;;;;4206697;28;20024;-59
2022/09/19 08:23:40;;;;;;;;;;;16.20;99.90;;;;;;4212974;28;19977;-60
2022/09/19 08:26:04;;;;;;;;;;;16.40;99.90;;;;;;4212809;28;19931;-59
2022/09/19 08:28:25;;;;;;;;;;;16.30;99.90;;;;;;4212766;28;19970;-58
2022/09/19 08:30:47;;;;;;;;;;;16.50;99.90;;;;;;4212503;28;20016;-60
2022/09/19 08:33:08;;;;;;;;;;;16.60;99.90;;;;;;4212973;28;20015;-58
2022/09/19 08:35:37;;;;;;;;;;;16.70;99.90;;;;;;4212346;28;19931;-59
2022/09/19 08:37:58;;;;;;;;;;;16.70;99.90;;;;;;4212406;28;20308;-59
2022/09/19 08:40:25;;;;;;;;;;;16.90;99.90;;;;;;4212556;28;19965;-59
2022/09/19 08:42:53;;;;;;;;;;;17.00;99.90;;;;;;4211342;28;19935;-59
2022/09/19 08:45:18;;;;;;;;;;;17.10;99.90;;;;;;4212590;28;19931;-59
2022/09/19 08:47:40;;;;;;;;;;;17.40;99.90;;;;;;4205136;28;20401;-59
2022/09/19 08:50:11;;;;;;;;;;;17.40;99.90;;;;;;4202090;28;19930;-60
2022/09/19 08:52:34;;;;;;;;;;;17.60;99.90;;;;;;4200113;28;19978;-59
2022/09/19 08:54:55;;;;;;;;;;;17.60;99.90;;;;;;4212769;28;19973;-59
2022/09/19 08:57:28;;;;;;;;;;;17.70;99.90;;;;;;4195984;28;19931;-58
2022/09/19 08:59:50;;;;;;;;;;;17.90;99.90;;;;;;4207918;28;19985;-59
2022/09/19 09:02:26;;;;;;;;;;;18.00;99.90;;;;;;4215196;28;20282;-59
2022/09/19 09:04:57;;;;;;;;;;;18.30;99.90;;;;;;4227029;28;20032;-59
2022/09/19 09:07:20;;;;;;;;;;;18.50;99.90;;;;;;4212323;28;19932;-59
2022/09/19 09:09:50;;;;;;;;;;;18.70;99.90;;;;;;4197690;28;20021;-59
2022/09/19 09:12:20;;;;;;;;;;;18.70;99.90;;;;;;4195701;28;19974;-59
2022/09/19 09:14:40;;;;;;;;;;;18.80;99.90;;;;;;4198930;28;20393;-58
2022/09/19 09:17:12;;;;;;;;;;;19.40;99.90;;;;;;4212164;28;20357;-59
2022/09/19 09:19:36;;;;;;;;;;;19.70;99.90;;;;;;4195318;28;20479;-59
2022/09/19 09:22:06;;;;;;;;;;;19.80;99.90;;;;;;4206186;28;20019;-59
2022/09/19 09:24:31;;;;;;;;;;;19.60;99.90;;;;;;4212443;28;19934;-59
2022/09/19 09:26:56;;;;;;;;;;;19.80;99.90;;;;;;4212088;28;20306;-59
2022/09/19 09:29:25;;;;;;;;;;;19.80;99.90;;;;;;4195371;28;19932;-59
2022/09/19 09:31:48;;;;;;;;;;;20.30;99.90;;;;;;4208137;28;19935;-59
2022/09/19 09:34:26;;;;;;;;;;;20.30;99.90;;;;;;4212437;28;19931;-59
2022/09/19 09:36:56;;;;;;;;;;;20.40;99.90;;;;;;4211503;28;19942;-59
2022/09/19 09:39:30;;;;;;;;;;;20.10;99.90;;;;;;4211957;28;19978;-59
2022/09/19 09:41:57;;;;;;;;;;;20.40;99.90;;;;;;4195538;28;20014;-58
2022/09/19 09:44:26;;;;;;;;;;;20.20;99.90;;;;;;4205727;28;20286;-59
2022/09/19 09:46:49;;;;;;;;;;;20.60;99.90;;;;;;4211598;28;20429;-59
2022/09/19 09:49:12;;;;;;;;;;;21.00;99.90;;;;;;4213286;28;20040;-59
2022/09/19 09:51:56;;;;;;;;;;;21.60;99.90;;;;;;4198434;28;20398;-59
2022/09/19 09:57:17;;;;;;;;;;;21.90;99.90;;;;;;4189696;28;19932;-59
2022/09/19 10:05:08;;;;;;;;;;;21.70;99.90;;;;;;4215301;28;19935;-59
2022/09/19 10:07:32;;;;;;;;;;;21.80;99.90;;;;;;4197979;28;19931;-59
2022/09/19 10:09:55;;;;;;;;;;;22.20;99.90;;;;;;4209598;28;20461;-59
2022/09/19 10:12:23;;;;;;;;;;;22.40;99.90;;;;;;4215082;28;19931;-58
2022/09/19 10:15:10;;;;;;;;;;;22.20;99.90;;;;;;4215088;28;19948;-58
2022/09/19 10:17:33;;;;;;;;;;;22.00;99.90;;;;;;4215234;28;19950;-58
2022/09/19 10:19:59;;;;;;;;;;;22.50;99.90;;;;;;4214644;28;20029;-58
2022/09/19 10:22:21;;;;;;;;;;;22.90;99.90;;;;;;4214872;28;20398;-59
2022/09/19 10:24:52;;;;;;;;;;;23.40;99.90;;;;;;4212900;28;20304;-59
2022/09/19 10:27:19;;;;;;;;;;;23.30;99.90;;;;;;4210878;28;20409;-59
2022/09/19 10:29:57;;;;;;;;;;;23.50;99.90;;;;;;4211201;28;19981;-59
2022/09/19 10:32:23;;;;;;;;;;;23.80;99.90;;;;;;4208561;28;19972;-59
2022/09/19 10:34:43;;;;;;;;;;;24.10;99.90;;;;;;4213340;28;20337;-58
2022/09/19 10:37:07;;;;;;;;;;;24.20;99.90;;;;;;4213222;28;20001;-59
2022/09/19 10:39:29;;;;;;;;;;;24.20;99.90;;;;;;4210671;28;20001;-58
2022/09/19 10:41:50;;;;;;;;;;;24.30;99.90;;;;;;4212922;28;19934;-59
2022/09/19 10:44:18;;;;;;;;;;;23.70;99.90;;;;;;4213100;28;20025;-58
2022/09/19 10:46:44;;;;;;;;;;;24.00;99.90;;;;;;4214162;28;20027;-58
2022/09/19 10:49:13;;;;;;;;;;;23.70;99.90;;;;;;4197785;28;19932;-59
2022/09/19 10:51:41;;;;;;;;;;;23.20;99.90;;;;;;4210517;28;19977;-59
2022/09/19 10:54:10;;;;;;;;;;;23.70;99.90;;;;;;4214382;28;20013;-58
2022/09/19 10:56:33;;;;;;;;;;;23.70;99.90;;;;;;4212852;28;19930;-58
2022/09/19 10:58:59;;;;;;;;;;;23.50;99.90;;;;;;4197013;28;20383;-59
2022/09/19 11:01:21;;;;;;;;;;;23.60;99.90;;;;;;4210839;28;19946;-59
2022/09/19 11:03:56;;;;;;;;;;;23.70;99.90;;;;;;4209910;28;20039;-57
2022/09/19 11:06:18;;;;;;;;;;;24.10;99.90;;;;;;4214003;28;20016;-58
2022/09/19 11:08:58;;;;;;;;;;;24.00;99.90;;;;;;4214032;28;20039;-59
2022/09/19 11:11:45;;;;;;;;;;;23.40;99.90;;;;;;4214155;28;20019;-58
2022/09/19 11:14:06;;;;;;;;;;;22.80;99.90;;;;;;4213614;28;20368;-59
2022/09/19 11:16:37;;;;;;;;;;;23.60;99.90;;;;;;4205656;28;19939;-59
2022/09/19 11:19:00;;;;;;;;;;;24.00;99.90;;;;;;4197160;28;19932;-59
2022/09/19 11:21:25;;;;;;;;;;;24.40;99.90;;;;;;4196935;28;20295;-58
2022/09/19 11:23:55;;;;;;;;;;;24.10;99.80;;;;;;4205462;28;20446;-59
2022/09/19 11:26:49;;;;;;;;;;;24.00;99.90;;;;;;4213898;28;20011;-59
2022/09/19 11:29:29;;;;;;;;;;;23.40;99.90;;;;;;4195976;28;20295;-59
2022/09/19 11:32:09;;;;;;;;;;;23.30;99.90;;;;;;4213563;28;20689;-58
2022/09/19 11:35:20;;;;;;;;;;;23.10;99.90;;;;;;4212471;28;20405;-59
2022/09/19 11:37:46;;;;;;;;;;;23.70;99.90;;;;;;4203010;28;19938;-58
2022/09/19 11:40:09;;;;;;;;;;;22.90;99.90;;;;;;4210576;28;19931;-59
2022/09/19 11:42:33;;;;;;;;;;;23.00;99.90;;;;;;4200280;28;19935;-59
2022/09/19 11:45:05;;;;;;;;;;;23.10;99.90;;;;;;4210693;28;19934;-59
2022/09/19 11:47:27;;;;;;;;;;;23.10;99.90;;;;;;4212472;28;19935;-59
2022/09/19 11:49:56;;;;;;;;;;;23.10;99.90;;;;;;4213522;28;19931;-58
2022/09/19 11:52:29;;;;;;;;;;;23.10;99.90;;;;;;4227814;28;20041;-59
2022/09/19 11:55:08;;;;;;;;;;;23.40;99.90;;;;;;4220064;28;19935;-59
2022/09/19 11:57:30;;;;;;;;;;;23.70;99.20;;;;;;4196438;28;19970;-59
2022/09/19 12:00:04;;;;;;;;;;;23.90;99.90;;;;;;4196377;28;19930;-59
2022/09/19 12:02:45;;;;;;;;;;;24.20;99.80;;;;;;4205290;28;19954;-59
2022/09/19 12:05:06;;;;;;;;;;;23.70;99.90;;;;;;4211441;28;19957;-59
2022/09/19 12:07:34;;;;;;;;;;;24.20;99.60;;;;;;4213170;28;19977;-60
2022/09/19 12:10:20;;;;;;;;;;;24.50;99.90;;;;;;4213108;28;20446;-59
2022/09/19 12:12:43;;;;;;;;;;;24.30;99.90;;;;;;4212893;28;19931;-59
2022/09/19 12:15:22;;;;;;;;;;;24.10;99.90;;;;;;4212333;28;19934;-60
2022/09/19 12:17:50;;;;;;;;;;;24.60;99.90;;;;;;4197680;28;20490;-59
2022/09/19 12:20:25;;;;;;;;;;;24.50;99.90;;;;;;4195999;28;19932;-59
2022/09/19 12:22:53;;;;;;;;;;;24.60;98.80;;;;;;4196072;28;19981;-59
2022/09/19 12:25:19;;;;;;;;;;;24.60;98.60;;;;;;4199711;28;19934;-60
2022/09/19 12:27:43;;;;;;;;;;;24.50;98.70;;;;;;4211298;28;19931;-59
2022/09/19 12:30:06;;;;;;;;;;;24.90;99.90;;;;;;4211908;28;19935;-59
2022/09/19 12:32:31;;;;;;;;;;;25.40;97.20;;;;;;4212782;28;20298;-59
2022/09/19 12:35:09;;;;;;;;;;;25.50;98.00;;;;;;4212476;28;19934;-60
2022/09/19 12:37:35;;;;;;;;;;;24.80;97.70;;;;;;4212839;28;20039;-59
2022/09/19 12:40:14;;;;;;;;;;;25.20;97.50;;;;;;4212651;28;20111;-59
2022/09/19 12:42:44;;;;;;;;;;;25.70;98.90;;;;;;4213979;28;19974;-60
2022/09/19 12:45:16;;;;;;;;;;;26.00;96.60;;;;;;4213833;28;19931;-60
2022/09/19 12:47:56;;;;;;;;;;;25.10;95.20;;;;;;4214383;28;19947;-59
2022/09/19 12:50:16;;;;;;;;;;;25.90;96.70;;;;;;4204041;28;20390;-60
2022/09/19 12:52:41;;;;;;;;;;;25.70;95.50;;;;;;4210158;28;19946;-60
2022/09/19 12:55:18;;;;;;;;;;;25.80;95.60;;;;;;4212425;28;20012;-59
2022/09/19 12:57:49;;;;;;;;;;;26.30;96.50;;;;;;4212122;28;19934;-59
2022/09/19 13:00:11;;;;;;;;;;;26.20;95.90;;;;;;4205386;28;19978;-59
2022/09/19 13:02:33;;;;;;;;;;;26.00;95.40;;;;;;4195911;28;19931;-59
2022/09/19 13:05:00;;;;;;;;;;;26.00;95.40;;;;;;4195554;28;19974;-59
2022/09/19 13:07:31;;;;;;;;;;;26.00;95.50;;;;;;4195831;28;19947;-59
2022/09/19 13:09:52;;;;;;;;;;;25.80;95.80;;;;;;4205300;28;19970;-59
2022/09/19 13:12:17;;;;;;;;;;;26.00;95.80;;;;;;4212373;28;19930;-59
2022/09/19 13:15:08;;;;;;;;;;;24.90;95.20;;;;;;4211687;28;19931;-59
2022/09/19 13:25:43;;;;;;;;;;;24.50;96.40;;;;;;4213371;28;19989;-58
2022/09/19 13:28:24;;;;;;;;;;;24.30;96.20;;;;;;4215298;28;20300;-59
2022/09/19 13:30:49;;;;;;;;;;;24.40;96.30;;;;;;4215365;28;19982;-59
2022/09/19 13:33:20;;;;;;;;;;;25.00;95.30;;;;;;4215526;28;19939;-59
2022/09/19 13:35:47;;;;;;;;;;;24.90;96.00;;;;;;4198405;28;20409;-59
2022/09/19 13:38:25;;;;;;;;;;;24.70;97.10;;;;;;4210587;28;19935;-59
2022/09/19 13:40:53;;;;;;;;;;;24.90;96.50;;;;;;4214957;28;20295;-58
2022/09/19 13:43:17;;;;;;;;;;;24.90;96.30;;;;;;4215459;28;20399;-59
2022/09/19 13:45:47;;;;;;;;;;;24.50;96.60;;;;;;4215676;28;19934;-58
2022/09/19 13:48:30;;;;;;;;;;;24.80;96.70;;;;;;4214903;28;19932;-59
2022/09/19 13:50:56;;;;;;;;;;;25.00;97.30;;;;;;4215433;28;19935;-59
2022/09/19 13:53:30;;;;;;;;;;;25.40;95.40;;;;;;4208596;28;20031;-59
2022/09/19 13:55:59;;;;;;;;;;;25.60;95.80;;;;;;4198595;28;19931;-59
2022/09/19 13:58:39;;;;;;;;;;;25.20;95.90;;;;;;4215413;28;20380;-59
2022/09/19 14:01:27;;;;;;;;;;;24.60;96.40;;;;;;4214781;28;20016;-59
2022/09/19 14:04:52;;;;;;;;;;;24.10;96.50;;;;;;4214990;28;19950;-58
2022/09/19 14:06:37;;;;;;;;;;;23.70;97.00;;;;;;4214859;28;20085;-59
2022/09/19 14:09:17;;;;;;;;;;;23.00;97.80;;;;;;4215148;28;19989;-58
2022/09/19 14:11:58;;;;;;;;;;;22.90;97.90;;;;;;4214931;28;19946;-58
2022/09/19 14:14:38;;;;;;;;;;;22.80;98.10;;;;;;4215303;28;19931;-58
2022/09/19 14:17:17;;;;;;;;;;;23.00;97.90;;;;;;4197965;28;19935;-58
2022/09/19 14:19:44;;;;;;;;;;;22.90;97.90;;;;;;4210097;28;19931;-59
2022/09/19 14:22:25;;;;;;;;;;;22.80;97.90;;;;;;4214696;28;19954;-59
2022/09/19 14:24:46;;;;;;;;;;;22.60;98.00;;;;;;4214643;28;19977;-59
2022/09/19 14:27:27;;;;;;;;;;;22.60;98.40;;;;;;4214611;28;19950;-58
2022/09/19 14:29:52;;;;;;;;;;;22.50;98.90;;;;;;4198044;28;19981;-58
2022/09/19 14:32:35;;;;;;;;;;;22.40;98.60;;;;;;4208422;28;19934;-58
2022/09/19 14:34:55;;;;;;;;;;;22.30;98.30;;;;;;4213869;28;19939;-58
2022/09/19 14:37:34;;;;;;;;;;;22.00;98.70;;;;;;4214536;28;19970;-58
2022/09/19 14:39:55;;;;;;;;;;;21.90;99.30;;;;;;4207814;28;20032;-59